Hutchinson Island, Florida
Current Conditions -  °F | °C
As of 6:53 AM on Friday 24 Oct 2014 (Local Time) from KFPR Reporting Station
Overcast Overcast  
Wind Chill: 74°   Ceiling: 3600
Heat Index: 74°   Visibility: 10mi
Dew Point: 60°   Wind: 9mph
Humidity: 62%   Direction: 60°ENE
Pressure: 29.91"   Gusts: NA
Location:  27.3823°N, 80.2604°W
Report Text: KFPR 241053Z 06008KT 10SM OVC036 23/16 A2991 RMK AO2 SLP127 T02330156
Loading
Personal Weather Stations






























Interactive Weather Map
Tropical Storm Tracking
New forecast layout! Learn more

10-Day Weather Forecast

Advertisements
Track Severe Weather on mobile